sensor_id;sensor_type;location;lat;lon;timestamp;temperature;humidity
4874;DHT22;2451;49.970;9.068;2023-11-19T00:00:26;7.60;99.90
4874;DHT22;2451;49.970;9.068;2023-11-19T00:02:52;7.70;99.90
4874;DHT22;2451;49.970;9.068;2023-11-19T00:05:18;7.70;99.90
4874;DHT22;2451;49.970;9.068;2023-11-19T00:07:44;7.70;99.90
4874;DHT22;2451;49.970;9.068;2023-11-19T00:10:10;7.70;99.90
4874;DHT22;2451;49.970;9.068;2023-11-19T00:12:44;7.70;99.90
4874;DHT22;2451;49.970;9.068;2023-11-19T00:15:10;7.70;99.90
4874;DHT22;2451;49.970;9.068;2023-11-19T00:17:43;7.70;99.90
4874;DHT22;2451;49.970;9.068;2023-11-19T00:20:16;7.80;99.90
4874;DHT22;2451;49.970;9.068;2023-11-19T00:22:43;7.80;99.90
4874;DHT22;2451;49.970;9.068;2023-11-19T00:25:09;7.80;99.90
4874;DHT22;2451;49.970;9.068;2023-11-19T00:27:35;7.80;99.90
4874;DHT22;2451;49.970;9.068;2023-11-19T00:30:03;7.80;99.90
4874;DHT22;2451;49.970;9.068;2023-11-19T00:32:31;7.80;99.90
4874;DHT22;2451;49.970;9.068;2023-11-19T00:34:57;7.90;99.90
4874;DHT22;2451;49.970;9.068;2023-11-19T00:37:24;7.90;99.90
4874;DHT22;2451;49.970;9.068;2023-11-19T00:39:49;7.90;99.90
4874;DHT22;2451;49.970;9.068;2023-11-19T00:42:15;7.90;99.90
4874;DHT22;2451;49.970;9.068;2023-11-19T00:44:40;7.90;99.90
4874;DHT22;2451;49.970;9.068;2023-11-19T00:47:07;7.90;99.90
4874;DHT22;2451;49.970;9.068;2023-11-19T00:49:32;8.00;99.90
4874;DHT22;2451;49.970;9.068;2023-11-19T00:51:58;8.00;99.90
4874;DHT22;2451;49.970;9.068;2023-11-19T00:54:24;8.00;99.90
4874;DHT22;2451;49.970;9.068;2023-11-19T00:56:52;8.00;99.90
4874;DHT22;2451;49.970;9.068;2023-11-19T00:59:18;8.00;99.90
4874;DHT22;2451;49.970;9.068;2023-11-19T01:01:46;8.00;99.90
4874;DHT22;2451;49.970;9.068;2023-11-19T01:04:16;7.90;99.90
4874;DHT22;2451;49.970;9.068;2023-11-19T01:06:42;8.00;99.90
4874;DHT22;2451;49.970;9.068;2023-11-19T01:09:09;8.00;99.90
4874;DHT22;2451;49.970;9.068;2023-11-19T01:11:34;8.00;99.90
4874;DHT22;2451;49.970;9.068;2023-11-19T01:14:00;8.00;99.90
4874;DHT22;2451;49.970;9.068;2023-11-19T01:16:26;8.00;99.90
4874;DHT22;2451;49.970;9.068;2023-11-19T01:18:52;8.00;99.90
4874;DHT22;2451;49.970;9.068;2023-11-19T01:21:18;8.00;99.90
4874;DHT22;2451;49.970;9.068;2023-11-19T01:23:44;8.10;99.90
4874;DHT22;2451;49.970;9.068;2023-11-19T01:26:13;8.10;99.90
4874;DHT22;2451;49.970;9.068;2023-11-19T01:28:39;8.10;99.90
4874;DHT22;2451;49.970;9.068;2023-11-19T01:31:11;8.10;99.90
4874;DHT22;2451;49.970;9.068;2023-11-19T01:33:36;8.10;99.90
4874;DHT22;2451;49.970;9.068;2023-11-19T01:36:02;8.10;99.90
4874;DHT22;2451;49.970;9.068;2023-11-19T01:38:29;8.10;99.90
4874;DHT22;2451;49.970;9.068;2023-11-19T01:40:56;8.10;99.90
4874;DHT22;2451;49.970;9.068;2023-11-19T01:43:38;8.10;99.90
4874;DHT22;2451;49.970;9.068;2023-11-19T01:46:06;8.10;99.90
4874;DHT22;2451;49.970;9.068;2023-11-19T01:48:35;8.10;99.90
4874;DHT22;2451;49.970;9.068;2023-11-19T01:51:03;8.10;99.90
4874;DHT22;2451;49.970;9.068;2023-11-19T01:53:29;8.10;99.90
4874;DHT22;2451;49.970;9.068;2023-11-19T01:55:56;8.20;99.90
4874;DHT22;2451;49.970;9.068;2023-11-19T01:58:22;8.10;99.90
4874;DHT22;2451;49.970;9.068;2023-11-19T02:00:48;8.20;99.90
4874;DHT22;2451;49.970;9.068;2023-11-19T02:03:14;8.20;99.90
4874;DHT22;2451;49.970;9.068;2023-11-19T02:05:40;8.20;99.90
4874;DHT22;2451;49.970;9.068;2023-11-19T02:08:09;8.20;99.90
4874;DHT22;2451;49.970;9.068;2023-11-19T02:10:35;8.20;99.90
4874;DHT22;2451;49.970;9.068;2023-11-19T02:13:01;8.30;99.90
4874;DHT22;2451;49.970;9.068;2023-11-19T02:15:28;8.30;99.90
4874;DHT22;2451;49.970;9.068;2023-11-19T02:17:53;8.30;99.90
4874;DHT22;2451;49.970;9.068;2023-11-19T02:20:19;8.30;99.90
4874;DHT22;2451;49.970;9.068;2023-11-19T02:22:49;8.30;99.90
4874;DHT22;2451;49.970;9.068;2023-11-19T02:25:25;8.40;99.90
4874;DHT22;2451;49.970;9.068;2023-11-19T02:27:59;8.40;99.90
4874;DHT22;2451;49.970;9.068;2023-11-19T02:30:29;8.40;99.90
4874;DHT22;2451;49.970;9.068;2023-11-19T02:32:55;8.40;99.90
4874;DHT22;2451;49.970;9.068;2023-11-19T02:35:29;8.40;99.90
4874;DHT22;2451;49.970;9.068;2023-11-19T02:37:58;8.40;99.90
4874;DHT22;2451;49.970;9.068;2023-11-19T02:40:25;8.50;99.90
4874;DHT22;2451;49.970;9.068;2023-11-19T02:42:54;8.40;99.90
4874;DHT22;2451;49.970;9.068;2023-11-19T02:45:23;8.50;99.90
4874;DHT22;2451;49.970;9.068;2023-11-19T02:47:50;8.50;99.90
4874;DHT22;2451;49.970;9.068;2023-11-19T02:50:17;8.50;99.90
4874;DHT22;2451;49.970;9.068;2023-11-19T02:52:51;8.50;99.90
4874;DHT22;2451;49.970;9.068;2023-11-19T02:55:17;8.50;99.90
4874;DHT22;2451;49.970;9.068;2023-11-19T02:57:44;8.50;99.90
4874;DHT22;2451;49.970;9.068;2023-11-19T03:00:18;8.60;99.90
4874;DHT22;2451;49.970;9.068;2023-11-19T03:02:46;8.60;99.90
4874;DHT22;2451;49.970;9.068;2023-11-19T03:05:15;8.60;99.90
4874;DHT22;2451;49.970;9.068;2023-11-19T03:07:43;8.60;99.90
4874;DHT22;2451;49.970;9.068;2023-11-19T03:10:10;8.60;99.90
4874;DHT22;2451;49.970;9.068;2023-11-19T03:12:39;8.60;99.90
4874;DHT22;2451;49.970;9.068;2023-11-19T03:15:05;8.60;99.90
4874;DHT22;2451;49.970;9.068;2023-11-19T03:17:31;8.60;99.90
4874;DHT22;2451;49.970;9.068;2023-11-19T03:19:56;8.60;99.90
4874;DHT22;2451;49.970;9.068;2023-11-19T03:22:22;8.60;99.90
4874;DHT22;2451;49.970;9.068;2023-11-19T03:24:50;8.60;99.90
4874;DHT22;2451;49.970;9.068;2023-11-19T03:27:16;8.60;99.90
4874;DHT22;2451;49.970;9.068;2023-11-19T03:29:42;8.60;99.90
4874;DHT22;2451;49.970;9.068;2023-11-19T03:32:10;8.70;99.90
4874;DHT22;2451;49.970;9.068;2023-11-19T03:34:37;8.70;99.90
4874;DHT22;2451;49.970;9.068;2023-11-19T03:37:03;8.70;99.90
4874;DHT22;2451;49.970;9.068;2023-11-19T03:39:29;8.70;99.90
4874;DHT22;2451;49.970;9.068;2023-11-19T03:41:54;8.60;99.90
4874;DHT22;2451;49.970;9.068;2023-11-19T03:44:20;8.70;99.90
4874;DHT22;2451;49.970;9.068;2023-11-19T03:46:47;8.70;99.90
4874;DHT22;2451;49.970;9.068;2023-11-19T03:49:12;8.70;99.90
4874;DHT22;2451;49.970;9.068;2023-11-19T03:51:38;8.80;99.90
4874;DHT22;2451;49.970;9.068;2023-11-19T03:54:04;8.90;99.90
4874;DHT22;2451;49.970;9.068;2023-11-19T03:56:29;8.90;99.90
4874;DHT22;2451;49.970;9.068;2023-11-19T03:58:56;9.00;99.90
4874;DHT22;2451;49.970;9.068;2023-11-19T04:01:22;9.10;99.90
4874;DHT22;2451;49.970;9.068;2023-11-19T04:03:50;9.20;99.90
4874;DHT22;2451;49.970;9.068;2023-11-19T04:06:16;9.30;99.90
4874;DHT22;2451;49.970;9.068;2023-11-19T04:08:41;9.40;99.90
4874;DHT22;2451;49.970;9.068;2023-11-19T04:11:07;9.40;99.90
4874;DHT22;2451;49.970;9.068;2023-11-19T04:13:34;9.50;99.90
4874;DHT22;2451;49.970;9.068;2023-11-19T04:16:00;9.60;99.90
4874;DHT22;2451;49.970;9.068;2023-11-19T04:18:25;9.60;99.90
4874;DHT22;2451;49.970;9.068;2023-11-19T04:20:52;9.70;99.90
4874;DHT22;2451;49.970;9.068;2023-11-19T04:23:18;9.80;99.90
4874;DHT22;2451;49.970;9.068;2023-11-19T04:25:43;9.80;99.90
4874;DHT22;2451;49.970;9.068;2023-11-19T04:28:09;9.80;99.90
4874;DHT22;2451;49.970;9.068;2023-11-19T04:30:35;9.90;99.90
4874;DHT22;2451;49.970;9.068;2023-11-19T04:33:01;9.90;99.90
4874;DHT22;2451;49.970;9.068;2023-11-19T04:35:26;9.90;99.90
4874;DHT22;2451;49.970;9.068;2023-11-19T04:37:52;9.90;99.90
4874;DHT22;2451;49.970;9.068;2023-11-19T04:40:18;9.90;99.90
4874;DHT22;2451;49.970;9.068;2023-11-19T04:42:43;9.90;99.90
4874;DHT22;2451;49.970;9.068;2023-11-19T04:45:09;9.90;99.90
4874;DHT22;2451;49.970;9.068;2023-11-19T04:47:36;10.00;99.90
4874;DHT22;2451;49.970;9.068;2023-11-19T04:50:02;10.00;99.90
4874;DHT22;2451;49.970;9.068;2023-11-19T04:52:28;10.00;99.90
4874;DHT22;2451;49.970;9.068;2023-11-19T04:54:54;10.00;99.90
4874;DHT22;2451;49.970;9.068;2023-11-19T04:57:19;10.10;99.90
4874;DHT22;2451;49.970;9.068;2023-11-19T04:59:45;10.10;99.90
4874;DHT22;2451;49.970;9.068;2023-11-19T05:02:10;10.10;99.90
4874;DHT22;2451;49.970;9.068;2023-11-19T05:04:36;10.10;99.90
4874;DHT22;2451;49.970;9.068;2023-11-19T05:07:03;10.10;99.90
4874;DHT22;2451;49.970;9.068;2023-11-19T05:09:29;10.20;99.90
4874;DHT22;2451;49.970;9.068;2023-11-19T05:11:55;10.20;99.90
4874;DHT22;2451;49.970;9.068;2023-11-19T05:14:21;10.20;99.90
4874;DHT22;2451;49.970;9.068;2023-11-19T05:16:47;10.30;99.90
4874;DHT22;2451;49.970;9.068;2023-11-19T05:19:16;10.30;99.90
4874;DHT22;2451;49.970;9.068;2023-11-19T05:21:42;10.30;99.90
4874;DHT22;2451;49.970;9.068;2023-11-19T05:24:08;10.30;99.90
4874;DHT22;2451;49.970;9.068;2023-11-19T05:26:34;10.40;99.90
4874;DHT22;2451;49.970;9.068;2023-11-19T05:29:00;10.40;99.90
4874;DHT22;2451;49.970;9.068;2023-11-19T05:31:25;10.30;99.90
4874;DHT22;2451;49.970;9.068;2023-11-19T05:33:51;10.40;99.90
4874;DHT22;2451;49.970;9.068;2023-11-19T05:36:17;10.40;99.90
4874;DHT22;2451;49.970;9.068;2023-11-19T05:38:42;10.40;99.90
4874;DHT22;2451;49.970;9.068;2023-11-19T05:41:09;10.50;99.90
4874;DHT22;2451;49.970;9.068;2023-11-19T05:43:35;10.50;99.90
4874;DHT22;2451;49.970;9.068;2023-11-19T05:46:01;10.50;99.90
4874;DHT22;2451;49.970;9.068;2023-11-19T05:48:27;10.50;99.90
4874;DHT22;2451;49.970;9.068;2023-11-19T05:50:53;10.60;99.90
4874;DHT22;2451;49.970;9.068;2023-11-19T05:53:19;10.60;99.90
4874;DHT22;2451;49.970;9.068;2023-11-19T05:55:45;10.60;99.90
4874;DHT22;2451;49.970;9.068;2023-11-19T05:58:25;10.60;99.90
4874;DHT22;2451;49.970;9.068;2023-11-19T06:00:52;10.60;99.90
4874;DHT22;2451;49.970;9.068;2023-11-19T06:03:18;10.60;99.90
4874;DHT22;2451;49.970;9.068;2023-11-19T06:05:48;10.70;99.90
4874;DHT22;2451;49.970;9.068;2023-11-19T06:08:14;10.70;99.90
4874;DHT22;2451;49.970;9.068;2023-11-19T06:10:41;10.70;99.90
4874;DHT22;2451;49.970;9.068;2023-11-19T06:13:06;10.70;99.90
4874;DHT22;2451;49.970;9.068;2023-11-19T06:15:35;10.70;99.90
4874;DHT22;2451;49.970;9.068;2023-11-19T06:18:01;10.70;99.90
4874;DHT22;2451;49.970;9.068;2023-11-19T06:20:29;10.70;99.90
4874;DHT22;2451;49.970;9.068;2023-11-19T06:22:56;10.80;99.90
4874;DHT22;2451;49.970;9.068;2023-11-19T06:25:22;10.80;99.90
4874;DHT22;2451;49.970;9.068;2023-11-19T06:27:52;10.80;99.90
4874;DHT22;2451;49.970;9.068;2023-11-19T06:30:18;10.80;99.90
4874;DHT22;2451;49.970;9.068;2023-11-19T06:32:44;10.80;99.90
4874;DHT22;2451;49.970;9.068;2023-11-19T06:35:10;10.80;99.90
4874;DHT22;2451;49.970;9.068;2023-11-19T06:37:38;10.80;99.90
4874;DHT22;2451;49.970;9.068;2023-11-19T06:40:04;10.80;99.90
4874;DHT22;2451;49.970;9.068;2023-11-19T06:42:31;10.80;99.90
4874;DHT22;2451;49.970;9.068;2023-11-19T06:44:56;10.80;99.90
4874;DHT22;2451;49.970;9.068;2023-11-19T06:47:28;10.90;99.90
4874;DHT22;2451;49.970;9.068;2023-11-19T06:49:54;10.90;99.90
4874;DHT22;2451;49.970;9.068;2023-11-19T06:52:20;10.90;99.90
4874;DHT22;2451;49.970;9.068;2023-11-19T06:54:46;11.00;99.90
4874;DHT22;2451;49.970;9.068;2023-11-19T06:57:12;11.00;99.90
4874;DHT22;2451;49.970;9.068;2023-11-19T06:59:38;11.00;99.90
4874;DHT22;2451;49.970;9.068;2023-11-19T07:02:04;11.10;99.90
4874;DHT22;2451;49.970;9.068;2023-11-19T07:04:30;11.10;99.90
4874;DHT22;2451;49.970;9.068;2023-11-19T07:06:56;11.10;99.90
4874;DHT22;2451;49.970;9.068;2023-11-19T07:09:22;11.10;99.90
4874;DHT22;2451;49.970;9.068;2023-11-19T07:11:49;11.10;99.90
4874;DHT22;2451;49.970;9.068;2023-11-19T07:14:17;11.10;99.90
4874;DHT22;2451;49.970;9.068;2023-11-19T07:16:43;11.10;99.90
4874;DHT22;2451;49.970;9.068;2023-11-19T07:19:08;11.10;99.90
4874;DHT22;2451;49.970;9.068;2023-11-19T07:21:34;11.10;99.90
4874;DHT22;2451;49.970;9.068;2023-11-19T07:24:00;11.20;99.90
4874;DHT22;2451;49.970;9.068;2023-11-19T07:26:27;11.20;99.90
4874;DHT22;2451;49.970;9.068;2023-11-19T07:28:54;11.20;99.90
4874;DHT22;2451;49.970;9.068;2023-11-19T07:31:20;11.30;99.90
4874;DHT22;2451;49.970;9.068;2023-11-19T07:33:47;11.30;99.90
4874;DHT22;2451;49.970;9.068;2023-11-19T07:36:13;11.30;99.90
4874;DHT22;2451;49.970;9.068;2023-11-19T07:38:39;11.30;99.90
4874;DHT22;2451;49.970;9.068;2023-11-19T07:41:05;11.30;99.90
4874;DHT22;2451;49.970;9.068;2023-11-19T07:43:31;11.30;99.90
4874;DHT22;2451;49.970;9.068;2023-11-19T07:45:56;11.30;99.90
4874;DHT22;2451;49.970;9.068;2023-11-19T07:48:25;11.30;99.90
4874;DHT22;2451;49.970;9.068;2023-11-19T07:50:53;11.40;99.90
4874;DHT22;2451;49.970;9.068;2023-11-19T07:53:19;11.40;99.90
4874;DHT22;2451;49.970;9.068;2023-11-19T07:55:45;11.50;99.90
4874;DHT22;2451;49.970;9.068;2023-11-19T07:58:12;11.50;99.90
4874;DHT22;2451;49.970;9.068;2023-11-19T08:00:38;11.50;99.90
4874;DHT22;2451;49.970;9.068;2023-11-19T08:03:04;11.60;99.90
4874;DHT22;2451;49.970;9.068;2023-11-19T08:05:30;11.60;99.90
4874;DHT22;2451;49.970;9.068;2023-11-19T08:07:56;11.70;99.90
4874;DHT22;2451;49.970;9.068;2023-11-19T08:10:22;11.80;99.90
4874;DHT22;2451;49.970;9.068;2023-11-19T08:12:48;11.80;99.90
4874;DHT22;2451;49.970;9.068;2023-11-19T08:15:13;11.90;99.90
4874;DHT22;2451;49.970;9.068;2023-11-19T08:17:39;12.00;99.90
4874;DHT22;2451;49.970;9.068;2023-11-19T08:20:08;12.20;99.90
4874;DHT22;2451;49.970;9.068;2023-11-19T08:22:37;12.40;99.90
4874;DHT22;2451;49.970;9.068;2023-11-19T08:25:06;12.40;99.90
4874;DHT22;2451;49.970;9.068;2023-11-19T08:27:32;12.50;99.90
4874;DHT22;2451;49.970;9.068;2023-11-19T08:29:58;12.50;99.90
4874;DHT22;2451;49.970;9.068;2023-11-19T08:32:25;12.40;99.90
4874;DHT22;2451;49.970;9.068;2023-11-19T08:34:51;12.40;99.90
4874;DHT22;2451;49.970;9.068;2023-11-19T08:37:16;12.30;99.90
4874;DHT22;2451;49.970;9.068;2023-11-19T08:39:49;12.30;99.90
4874;DHT22;2451;49.970;9.068;2023-11-19T08:42:16;12.30;99.90
4874;DHT22;2451;49.970;9.068;2023-11-19T08:44:42;12.40;99.90
4874;DHT22;2451;49.970;9.068;2023-11-19T08:47:09;12.60;99.90
4874;DHT22;2451;49.970;9.068;2023-11-19T08:49:36;12.80;99.90
4874;DHT22;2451;49.970;9.068;2023-11-19T08:52:02;12.90;99.90
4874;DHT22;2451;49.970;9.068;2023-11-19T08:54:27;13.00;99.90
4874;DHT22;2451;49.970;9.068;2023-11-19T08:56:53;13.10;99.90
4874;DHT22;2451;49.970;9.068;2023-11-19T08:59:19;13.20;99.90
4874;DHT22;2451;49.970;9.068;2023-11-19T09:01:44;13.30;99.90
4874;DHT22;2451;49.970;9.068;2023-11-19T09:04:10;13.30;99.90
4874;DHT22;2451;49.970;9.068;2023-11-19T09:06:36;13.20;99.90
4874;DHT22;2451;49.970;9.068;2023-11-19T09:09:02;13.20;99.90
4874;DHT22;2451;49.970;9.068;2023-11-19T09:11:29;13.20;99.90
4874;DHT22;2451;49.970;9.068;2023-11-19T09:13:54;13.20;99.90
4874;DHT22;2451;49.970;9.068;2023-11-19T09:16:20;13.20;99.90
4874;DHT22;2451;49.970;9.068;2023-11-19T09:18:45;13.20;99.90
4874;DHT22;2451;49.970;9.068;2023-11-19T09:21:11;13.10;99.90
4874;DHT22;2451;49.970;9.068;2023-11-19T09:23:37;13.10;99.90
4874;DHT22;2451;49.970;9.068;2023-11-19T09:26:14;13.00;99.90
4874;DHT22;2451;49.970;9.068;2023-11-19T09:28:40;13.10;99.90
4874;DHT22;2451;49.970;9.068;2023-11-19T09:31:15;13.50;99.90
4874;DHT22;2451;49.970;9.068;2023-11-19T09:33:41;13.90;99.90
4874;DHT22;2451;49.970;9.068;2023-11-19T09:36:06;14.50;99.90
4874;DHT22;2451;49.970;9.068;2023-11-19T09:38:32;14.90;99.90
4874;DHT22;2451;49.970;9.068;2023-11-19T09:41:01;15.10;99.90
4874;DHT22;2451;49.970;9.068;2023-11-19T09:43:27;15.10;99.90
4874;DHT22;2451;49.970;9.068;2023-11-19T09:45:55;15.10;99.90
4874;DHT22;2451;49.970;9.068;2023-11-19T09:48:21;15.60;99.90
4874;DHT22;2451;49.970;9.068;2023-11-19T09:50:50;15.90;99.90
4874;DHT22;2451;49.970;9.068;2023-11-19T09:53:17;16.40;99.90
4874;DHT22;2451;49.970;9.068;2023-11-19T09:55:44;16.70;99.90
4874;DHT22;2451;49.970;9.068;2023-11-19T09:58:12;17.20;99.90
4874;DHT22;2451;49.970;9.068;2023-11-19T10:00:40;17.50;99.90
4874;DHT22;2451;49.970;9.068;2023-11-19T10:03:07;17.70;99.90
4874;DHT22;2451;49.970;9.068;2023-11-19T10:05:34;17.60;99.90
4874;DHT22;2451;49.970;9.068;2023-11-19T10:08:01;17.70;99.90
4874;DHT22;2451;49.970;9.068;2023-11-19T10:10:28;17.90;99.90
4874;DHT22;2451;49.970;9.068;2023-11-19T10:13:01;17.90;99.90
4874;DHT22;2451;49.970;9.068;2023-11-19T10:15:26;17.60;99.90
4874;DHT22;2451;49.970;9.068;2023-11-19T10:17:56;17.10;99.90
4874;DHT22;2451;49.970;9.068;2023-11-19T10:20:25;16.70;99.90
4874;DHT22;2451;49.970;9.068;2023-11-19T10:22:57;16.30;99.90
4874;DHT22;2451;49.970;9.068;2023-11-19T10:25:27;16.20;99.90
4874;DHT22;2451;49.970;9.068;2023-11-19T10:27:55;16.50;99.90
4874;DHT22;2451;49.970;9.068;2023-11-19T10:30:22;16.40;99.90
4874;DHT22;2451;49.970;9.068;2023-11-19T10:33:07;16.50;99.90
4874;DHT22;2451;49.970;9.068;2023-11-19T10:35:50;16.40;99.90
4874;DHT22;2451;49.970;9.068;2023-11-19T10:38:17;16.40;99.90
4874;DHT22;2451;49.970;9.068;2023-11-19T10:40:43;16.40;99.90
4874;DHT22;2451;49.970;9.068;2023-11-19T10:43:09;16.70;99.90
4874;DHT22;2451;49.970;9.068;2023-11-19T10:45:35;16.70;99.90
4874;DHT22;2451;49.970;9.068;2023-11-19T10:48:03;16.40;99.90
4874;DHT22;2451;49.970;9.068;2023-11-19T10:50:35;16.30;99.90
4874;DHT22;2451;49.970;9.068;2023-11-19T10:53:03;16.30;99.90
4874;DHT22;2451;49.970;9.068;2023-11-19T10:55:31;16.20;99.90
4874;DHT22;2451;49.970;9.068;2023-11-19T10:58:03;15.90;99.90
4874;DHT22;2451;49.970;9.068;2023-11-19T11:00:42;15.70;99.90
4874;DHT22;2451;49.970;9.068;2023-11-19T11:03:12;15.40;99.90
4874;DHT22;2451;49.970;9.068;2023-11-19T11:05:40;15.30;99.90
4874;DHT22;2451;49.970;9.068;2023-11-19T11:08:06;15.10;99.90
4874;DHT22;2451;49.970;9.068;2023-11-19T11:10:32;15.10;99.90
4874;DHT22;2451;49.970;9.068;2023-11-19T11:13:03;15.10;99.90
4874;DHT22;2451;49.970;9.068;2023-11-19T11:15:31;15.20;99.90
4874;DHT22;2451;49.970;9.068;2023-11-19T11:18:00;15.50;99.90
4874;DHT22;2451;49.970;9.068;2023-11-19T11:20:33;15.50;99.90
4874;DHT22;2451;49.970;9.068;2023-11-19T11:29:05;16.50;99.90
4874;DHT22;2451;49.970;9.068;2023-11-19T11:31:53;16.90;99.90
4874;DHT22;2451;49.970;9.068;2023-11-19T11:37:39;16.50;99.90
4874;DHT22;2451;49.970;9.068;2023-11-19T11:40:05;16.10;99.90
4874;DHT22;2451;49.970;9.068;2023-11-19T11:42:39;15.80;99.90
4874;DHT22;2451;49.970;9.068;2023-11-19T11:45:08;15.40;99.90
4874;DHT22;2451;49.970;9.068;2023-11-19T11:50:10;15.10;99.90
4874;DHT22;2451;49.970;9.068;2023-11-19T11:55:36;14.80;99.90
4874;DHT22;2451;49.970;9.068;2023-11-19T11:58:05;14.60;99.90
4874;DHT22;2451;49.970;9.068;2023-11-19T12:00:41;14.60;99.90
4874;DHT22;2451;49.970;9.068;2023-11-19T12:03:08;14.50;99.90
4874;DHT22;2451;49.970;9.068;2023-11-19T12:05:40;14.50;99.90
4874;DHT22;2451;49.970;9.068;2023-11-19T12:08:07;14.50;99.90
4874;DHT22;2451;49.970;9.068;2023-11-19T12:10:49;14.40;99.90
4874;DHT22;2451;49.970;9.068;2023-11-19T12:13:16;14.40;99.90
4874;DHT22;2451;49.970;9.068;2023-11-19T12:18:23;14.20;99.90
4874;DHT22;2451;49.970;9.068;2023-11-19T12:20:49;14.20;99.90
4874;DHT22;2451;49.970;9.068;2023-11-19T12:23:15;14.20;99.90
4874;DHT22;2451;49.970;9.068;2023-11-19T12:25:41;14.20;99.90
4874;DHT22;2451;49.970;9.068;2023-11-19T12:28:12;14.20;99.90
4874;DHT22;2451;49.970;9.068;2023-11-19T12:30:38;14.20;99.90
4874;DHT22;2451;49.970;9.068;2023-11-19T12:33:12;14.10;99.90
4874;DHT22;2451;49.970;9.068;2023-11-19T12:35:41;14.10;99.90
4874;DHT22;2451;49.970;9.068;2023-11-19T12:38:08;14.10;99.90
4874;DHT22;2451;49.970;9.068;2023-11-19T12:40:34;14.00;99.90
4874;DHT22;2451;49.970;9.068;2023-11-19T12:43:03;14.00;99.90
4874;DHT22;2451;49.970;9.068;2023-11-19T12:45:35;14.10;99.90
4874;DHT22;2451;49.970;9.068;2023-11-19T12:48:05;14.10;99.90
4874;DHT22;2451;49.970;9.068;2023-11-19T12:50:49;14.10;99.90
4874;DHT22;2451;49.970;9.068;2023-11-19T12:53:19;14.10;99.90
4874;DHT22;2451;49.970;9.068;2023-11-19T12:55:45;14.10;99.90
4874;DHT22;2451;49.970;9.068;2023-11-19T12:58:27;14.00;99.90
4874;DHT22;2451;49.970;9.068;2023-11-19T13:01:05;14.10;99.90
4874;DHT22;2451;49.970;9.068;2023-11-19T13:03:35;14.20;99.90
4874;DHT22;2451;49.970;9.068;2023-11-19T13:06:09;14.20;99.90
4874;DHT22;2451;49.970;9.068;2023-11-19T13:08:40;14.20;99.90
4874;DHT22;2451;49.970;9.068;2023-11-19T13:11:07;14.40;99.90
4874;DHT22;2451;49.970;9.068;2023-11-19T13:16:20;14.60;99.90
4874;DHT22;2451;49.970;9.068;2023-11-19T13:18:46;15.00;99.90
4874;DHT22;2451;49.970;9.068;2023-11-19T13:21:11;15.20;99.90
4874;DHT22;2451;49.970;9.068;2023-11-19T13:23:37;15.50;99.90
4874;DHT22;2451;49.970;9.068;2023-11-19T13:26:03;15.80;99.90
4874;DHT22;2451;49.970;9.068;2023-11-19T13:28:29;15.90;99.90
4874;DHT22;2451;49.970;9.068;2023-11-19T13:30:54;16.10;99.90
4874;DHT22;2451;49.970;9.068;2023-11-19T13:33:20;16.20;99.90
4874;DHT22;2451;49.970;9.068;2023-11-19T13:35:46;16.30;99.90
4874;DHT22;2451;49.970;9.068;2023-11-19T13:38:14;16.30;99.90
4874;DHT22;2451;49.970;9.068;2023-11-19T13:40:40;16.20;99.90
4874;DHT22;2451;49.970;9.068;2023-11-19T13:43:05;16.20;99.90
4874;DHT22;2451;49.970;9.068;2023-11-19T13:45:31;16.10;99.90
4874;DHT22;2451;49.970;9.068;2023-11-19T13:47:56;15.80;99.90
4874;DHT22;2451;49.970;9.068;2023-11-19T13:50:22;15.60;99.90
4874;DHT22;2451;49.970;9.068;2023-11-19T13:52:49;15.40;99.90
4874;DHT22;2451;49.970;9.068;2023-11-19T13:55:15;15.30;99.90
4874;DHT22;2451;49.970;9.068;2023-11-19T13:57:42;15.20;99.90
4874;DHT22;2451;49.970;9.068;2023-11-19T14:00:09;15.40;99.90
4874;DHT22;2451;49.970;9.068;2023-11-19T14:02:41;15.40;99.90
4874;DHT22;2451;49.970;9.068;2023-11-19T14:05:11;15.50;99.90
4874;DHT22;2451;49.970;9.068;2023-11-19T14:07:37;15.50;99.90
4874;DHT22;2451;49.970;9.068;2023-11-19T14:10:04;15.40;99.90
4874;DHT22;2451;49.970;9.068;2023-11-19T14:12:31;15.40;99.90
4874;DHT22;2451;49.970;9.068;2023-11-19T14:14:57;15.20;99.90
4874;DHT22;2451;49.970;9.068;2023-11-19T14:17:23;15.20;99.90
4874;DHT22;2451;49.970;9.068;2023-11-19T14:19:50;15.00;99.90
4874;DHT22;2451;49.970;9.068;2023-11-19T14:22:16;15.00;99.90
4874;DHT22;2451;49.970;9.068;2023-11-19T14:24:42;14.90;99.90
4874;DHT22;2451;49.970;9.068;2023-11-19T14:27:11;14.80;99.90
4874;DHT22;2451;49.970;9.068;2023-11-19T14:29:37;14.80;99.90
4874;DHT22;2451;49.970;9.068;2023-11-19T14:32:03;14.70;99.90
4874;DHT22;2451;49.970;9.068;2023-11-19T14:34:32;14.60;99.90
4874;DHT22;2451;49.970;9.068;2023-11-19T14:37:01;14.50;99.90
4874;DHT22;2451;49.970;9.068;2023-11-19T14:39:26;14.40;99.90
4874;DHT22;2451;49.970;9.068;2023-11-19T14:41:52;14.40;99.90
4874;DHT22;2451;49.970;9.068;2023-11-19T14:44:23;14.30;99.90
4874;DHT22;2451;49.970;9.068;2023-11-19T14:46:49;14.20;99.90
4874;DHT22;2451;49.970;9.068;2023-11-19T14:49:15;14.20;99.90
4874;DHT22;2451;49.970;9.068;2023-11-19T14:51:41;14.10;99.90
4874;DHT22;2451;49.970;9.068;2023-11-19T14:54:06;14.10;99.90
4874;DHT22;2451;49.970;9.068;2023-11-19T14:56:32;14.00;99.90
4874;DHT22;2451;49.970;9.068;2023-11-19T14:58:58;14.10;99.90
4874;DHT22;2451;49.970;9.068;2023-11-19T15:01:24;14.10;99.90
4874;DHT22;2451;49.970;9.068;2023-11-19T15:03:50;14.10;99.90
4874;DHT22;2451;49.970;9.068;2023-11-19T15:06:16;14.00;99.90
4874;DHT22;2451;49.970;9.068;2023-11-19T15:08:42;14.00;99.90
4874;DHT22;2451;49.970;9.068;2023-11-19T15:11:08;13.90;99.90
4874;DHT22;2451;49.970;9.068;2023-11-19T15:13:37;13.90;99.90
4874;DHT22;2451;49.970;9.068;2023-11-19T15:16:06;13.80;99.90
4874;DHT22;2451;49.970;9.068;2023-11-19T15:18:34;13.80;99.90
4874;DHT22;2451;49.970;9.068;2023-11-19T15:21:00;13.80;99.90
4874;DHT22;2451;49.970;9.068;2023-11-19T15:23:26;13.70;99.90
4874;DHT22;2451;49.970;9.068;2023-11-19T15:25:51;13.60;99.90
4874;DHT22;2451;49.970;9.068;2023-11-19T15:28:17;13.60;99.90
4874;DHT22;2451;49.970;9.068;2023-11-19T15:30:42;13.50;99.90
4874;DHT22;2451;49.970;9.068;2023-11-19T15:33:08;13.50;99.90
4874;DHT22;2451;49.970;9.068;2023-11-19T15:35:37;13.50;99.90
4874;DHT22;2451;49.970;9.068;2023-11-19T15:38:06;13.50;99.90
4874;DHT22;2451;49.970;9.068;2023-11-19T15:40:35;13.40;99.90
4874;DHT22;2451;49.970;9.068;2023-11-19T15:43:00;13.40;99.90
4874;DHT22;2451;49.970;9.068;2023-11-19T15:45:27;13.30;99.90
4874;DHT22;2451;49.970;9.068;2023-11-19T15:47:52;13.20;99.90
4874;DHT22;2451;49.970;9.068;2023-11-19T15:50:18;13.20;99.90
4874;DHT22;2451;49.970;9.068;2023-11-19T15:52:43;13.20;99.90
4874;DHT22;2451;49.970;9.068;2023-11-19T15:55:10;13.10;99.90
4874;DHT22;2451;49.970;9.068;2023-11-19T15:57:39;13.10;99.90
4874;DHT22;2451;49.970;9.068;2023-11-19T16:00:05;13.00;99.90
4874;DHT22;2451;49.970;9.068;2023-11-19T16:02:36;13.00;99.90
4874;DHT22;2451;49.970;9.068;2023-11-19T16:05:01;12.90;99.90
4874;DHT22;2451;49.970;9.068;2023-11-19T16:07:27;12.90;99.90
4874;DHT22;2451;49.970;9.068;2023-11-19T16:09:55;12.80;99.90
4874;DHT22;2451;49.970;9.068;2023-11-19T16:12:21;12.80;99.90
4874;DHT22;2451;49.970;9.068;2023-11-19T16:14:46;12.70;99.90
4874;DHT22;2451;49.970;9.068;2023-11-19T16:17:12;12.70;99.90
4874;DHT22;2451;49.970;9.068;2023-11-19T16:19:37;12.70;99.90
4874;DHT22;2451;49.970;9.068;2023-11-19T16:22:06;12.70;99.90
4874;DHT22;2451;49.970;9.068;2023-11-19T16:24:35;12.60;99.90
4874;DHT22;2451;49.970;9.068;2023-11-19T16:27:04;12.60;99.90